Weather History for Jackson, MN

Change the Weather History Date:

Friday, December 7, 2012

  Actual Average Record
Temperature  
Mean Temperature 29 °F -  
Max Temperature 32 °F 32 °F 48 °F (1999)
Min Temperature 26 °F 18 °F -13 °F (2013)
Degree Days  
Heating Degree Days 36    
Moisture  
Dew Point 24 °F    
Average Humidity 77    
Maximum Humidity 93    
Minimum Humidity 69    
Precipitation  
Precipitation 0.00 in - - ()
Sea Level Pressure  
Sea Level Pressure 29.98 in    
Wind  
Wind Speed 7 mph (NE)    
Max Wind Speed 14 mph    
Max Gust Speed -    
Visibility 8 miles    
Events Snow    
Averages and records for this station are not official NWS values.
T = Trace of Precipitation, MM = Missing Value Source: NWS Daily Summary

Daily Weather History Graph

Daily Weather History Graph

Search for Another Location

Airport:

Trip Planner

Search our weather history database for the weather conditions in past years. The results will help you decide how hot, cold, wet, or windy it might be!

Date:

Astronomy

Dec. 07, 2012 Rise Set
Actual Time 7:40 AM CST 4:43 PM CST
Civil Twilight 7:07 AM CST 5:15 PM CST
Nautical Twilight 6:31 AM CST 5:51 PM CST
Astronomical Twilight 5:56 AM CST 6:26 PM CST
Moon 12:49 AM CST (12/7) 12:50 PM CST (12/7)
Length of Visible Light 10h 07m
Length of Day
9h 02m
Last Quarter, 38% of the Moon is Illuminated
Dec 7
Last Quarter
Dec 13
New
Dec 19
First Quarter
Dec 28
Full
Jan 4
Last Quarter

Hourly Weather History & Observations

Time (CST) Temp. Windchill Dew Point Humidity Pressure Visibility Wind Dir Wind Speed Gust Speed Precip Events Conditions
12:13 AM 32.0 °F 24.2 °F 23.0 °F 69% 30.00 in 10.0 mi NNE 9.2 mph - N/A   Overcast
12:33 AM 32.0 °F 24.8 °F 23.0 °F 69% 30.00 in 10.0 mi North 8.1 mph - N/A   Overcast
12:53 AM 32.0 °F 25.6 °F 23.0 °F 69% 30.00 in 10.0 mi North 6.9 mph - N/A   Overcast
1:13 AM 32.0 °F 27.5 °F 23.0 °F 69% 30.01 in 10.0 mi NNE 4.6 mph - N/A   Overcast
1:33 AM 32.0 °F 27.5 °F 23.0 °F 69% 30.01 in 10.0 mi NNE 4.6 mph - N/A   Overcast
1:53 AM 32.0 °F 27.5 °F 23.0 °F 69% 30.02 in 10.0 mi NE 4.6 mph - N/A   Overcast
2:13 AM 32.0 °F 26.4 °F 23.0 °F 69% 30.01 in 10.0 mi NNE 5.8 mph - N/A   Overcast
2:33 AM 30.2 °F 25.4 °F 23.0 °F 75% 30.01 in 10.0 mi NNE 4.6 mph - N/A   Overcast
2:53 AM 30.2 °F 24.3 °F 23.0 °F 75% 30.01 in 10.0 mi NNE 5.8 mph - N/A   Overcast
3:13 AM 30.2 °F 25.4 °F 23.0 °F 75% 30.00 in 10.0 mi NNE 4.6 mph - N/A   Mostly Cloudy
3:33 AM 30.2 °F 25.4 °F 23.0 °F 75% 30.00 in 10.0 mi NNE 4.6 mph - N/A   Scattered Clouds
3:53 AM 30.2 °F 25.4 °F 23.0 °F 75% 30.00 in 10.0 mi North 4.6 mph - N/A   Scattered Clouds
4:13 AM 28.4 °F 23.3 °F 23.0 °F 80% 30.00 in 10.0 mi NNE 4.6 mph - N/A   Scattered Clouds
4:33 AM 30.2 °F 25.4 °F 23.0 °F 75% 30.00 in 10.0 mi NNE 4.6 mph - N/A   Mostly Cloudy
4:53 AM 30.2 °F 24.3 °F 23.0 °F 75% 30.00 in 10.0 mi NNE 5.8 mph - N/A   Overcast
5:13 AM 28.4 °F 23.3 °F 23.0 °F 80% 29.99 in 10.0 mi NNE 4.6 mph - N/A   Overcast
5:33 AM 28.4 °F 24.6 °F 23.0 °F 80% 29.99 in 10.0 mi North 3.5 mph - N/A   Overcast
5:53 AM 28.4 °F - 23.0 °F 80% 29.99 in 10.0 mi Calm Calm - N/A   Overcast
6:13 AM 28.4 °F 24.6 °F 23.0 °F 80% 29.99 in 10.0 mi NNE 3.5 mph - N/A   Overcast
6:33 AM 26.6 °F 21.2 °F 23.0 °F 86% 29.98 in 10.0 mi NE 4.6 mph - N/A   Overcast
6:53 AM 26.6 °F - 23.0 °F 86% 29.99 in 10.0 mi Calm Calm - N/A   Overcast
7:13 AM 28.4 °F - 23.0 °F 80% 29.98 in 10.0 mi Calm Calm - N/A   Overcast
7:33 AM 28.4 °F 23.3 °F 23.0 °F 80% 29.97 in 10.0 mi ENE 4.6 mph - N/A   Overcast
7:53 AM 28.4 °F - 23.0 °F 80% 29.98 in 10.0 mi Calm Calm - N/A   Overcast
8:13 AM 28.4 °F - 23.0 °F 80% 29.98 in 10.0 mi Calm Calm - N/A   Mostly Cloudy
8:33 AM 28.4 °F 23.3 °F 23.0 °F 80% 29.98 in 10.0 mi North 4.6 mph - N/A   Scattered Clouds
8:53 AM 30.2 °F 25.4 °F 23.0 °F 75% 29.99 in 10.0 mi NNE 4.6 mph - N/A   Mostly Cloudy
9:13 AM 30.2 °F 22.6 °F 23.0 °F 75% 29.99 in 10.0 mi NNE 8.1 mph - N/A   Overcast
9:33 AM 30.2 °F 21.3 °F 23.0 °F 75% 29.99 in 10.0 mi North 10.4 mph - N/A   Overcast
9:53 AM 30.2 °F 21.9 °F 23.0 °F 75% 30.00 in 10.0 mi NNE 9.2 mph - N/A   Overcast
10:13 AM 30.2 °F 20.8 °F 23.0 °F 75% 29.99 in 10.0 mi NE 11.5 mph - N/A   Overcast
10:33 AM 32.0 °F 23.0 °F 23.0 °F 69% 30.00 in 10.0 mi NE 11.5 mph - N/A   Overcast
10:53 AM 32.0 °F 23.6 °F 23.0 °F 69% 30.01 in 10.0 mi NNE 10.4 mph - N/A   Overcast
11:13 AM 32.0 °F 23.6 °F 23.0 °F 69% 30.00 in 10.0 mi NNE 10.4 mph - N/A   Overcast
11:33 AM 32.0 °F 23.0 °F 23.0 °F 69% 29.99 in 10.0 mi NNE 11.5 mph - N/A   Overcast
11:53 AM 32.0 °F 23.6 °F 23.0 °F 69% 29.99 in 10.0 mi NNE 10.4 mph - N/A   Overcast
12:13 PM 32.0 °F 23.0 °F 23.0 °F 69% 29.99 in 10.0 mi NNE 11.5 mph - N/A   Overcast
12:33 PM 32.0 °F 22.5 °F 23.0 °F 69% 29.97 in 10.0 mi NNE 12.7 mph - N/A   Overcast
12:53 PM 32.0 °F 23.0 °F 23.0 °F 69% 29.96 in 10.0 mi NNE 11.5 mph - N/A   Overcast
1:14 PM 32.0 °F 23.6 °F 23.0 °F 69% 29.97 in 10.0 mi NE 10.4 mph - N/A   Overcast
1:33 PM 32.0 °F 24.8 °F 23.0 °F 69% 29.96 in 10.0 mi NE 8.1 mph - N/A   Overcast
1:53 PM 32.0 °F 22.5 °F 23.0 °F 69% 29.95 in 10.0 mi NE 12.7 mph - N/A   Overcast
2:14 PM 32.0 °F 27.5 °F 23.0 °F 69% 29.96 in 10.0 mi East 4.6 mph - N/A   Overcast
2:33 PM 32.0 °F 22.1 °F 23.0 °F 69% 29.95 in 10.0 mi NE 13.8 mph - N/A   Overcast
3:14 PM 32.0 °F 26.4 °F 23.0 °F 69% 29.96 in 10.0 mi NE 5.8 mph - N/A   Overcast
3:33 PM 32.0 °F 24.8 °F 23.0 °F 69% 29.96 in 10.0 mi ENE 8.1 mph - N/A   Overcast
3:53 PM 32.0 °F 23.6 °F 23.0 °F 69% 29.97 in 10.0 mi ENE 10.4 mph - N/A   Overcast
4:14 PM 32.0 °F 23.6 °F 23.0 °F 69% 29.96 in 10.0 mi East 10.4 mph - N/A   Overcast
4:33 PM 32.0 °F 24.2 °F 23.0 °F 69% 29.96 in 10.0 mi ENE 9.2 mph - N/A   Overcast
4:53 PM 32.0 °F 23.6 °F 23.0 °F 69% 29.96 in 10.0 mi ENE 10.4 mph - N/A   Overcast
5:14 PM 30.2 °F 21.9 °F 23.0 °F 75% 29.96 in 10.0 mi ENE 9.2 mph - N/A   Overcast
5:33 PM 30.2 °F 20.2 °F 23.0 °F 75% 29.96 in 10.0 mi NE 12.7 mph - N/A Snow Light Snow
5:53 PM 30.2 °F 20.8 °F 23.0 °F 75% 29.96 in 10.0 mi NE 11.5 mph - N/A Snow Light Snow
6:14 PM 30.2 °F 20.8 °F 24.8 °F 80% 29.96 in 7.0 mi NE 11.5 mph - N/A Snow Light Snow
6:33 PM 30.2 °F 21.3 °F 24.8 °F 80% 29.97 in 3.0 mi NE 10.4 mph - N/A Snow Light Snow
7:14 PM 30.2 °F 21.9 °F 26.6 °F 86% 29.98 in 2.5 mi NNE 9.2 mph - N/A Snow Light Snow
7:33 PM 30.2 °F 21.9 °F 26.6 °F 86% 29.97 in 2.5 mi NE 9.2 mph - N/A Snow Light Snow
7:53 PM 30.2 °F 21.9 °F 26.6 °F 86% 29.98 in 2.5 mi NNE 9.2 mph - N/A Snow Light Snow
8:33 PM 30.2 °F 22.6 °F 26.6 °F 86% 29.99 in 2.5 mi NNE 8.1 mph - N/A Snow Light Snow
8:53 PM 30.2 °F 22.6 °F 26.6 °F 86% 29.99 in 1.5 mi NNE 8.1 mph - N/A Snow Light Snow
9:33 PM 30.2 °F 23.4 °F 26.6 °F 86% 29.99 in 2.0 mi NNE 6.9 mph - N/A Snow Light Snow
9:53 PM 30.2 °F 23.4 °F 26.6 °F 86% 29.99 in 2.5 mi NNE 6.9 mph - N/A Snow Light Snow
10:13 PM 28.4 °F 21.2 °F 26.6 °F 93% 29.99 in 2.5 mi NNE 6.9 mph - N/A Snow Light Snow
10:33 PM 28.4 °F 22.2 °F 26.6 °F 93% 29.99 in 2.5 mi NNE 5.8 mph - N/A Snow Light Snow
10:53 PM 28.4 °F 23.3 °F 26.6 °F 93% 29.99 in 3.0 mi NE 4.6 mph - N/A Snow Light Snow
11:13 PM 28.4 °F 23.3 °F 26.6 °F 93% 29.99 in 3.0 mi NNE 4.6 mph - N/A Snow Light Snow
11:33 PM 28.4 °F 23.3 °F 26.6 °F 93% 29.99 in 3.0 mi NNE 4.6 mph - N/A Snow Light Snow
11:53 PM 28.4 °F 23.3 °F 26.6 °F 93% 29.99 in 3.0 mi NNE 4.6 mph - N/A Snow Light Snow